Pagrindinis puslapis
METAR-TAF:

METAR-TAF

Oro uostai :

Kilinas, Teksasas, Jungtinės Amerikos Valstijos

platuma: 31-05N, ilguma: 097-41W, Aukštis: 258 m

Dabartinis oras

Ataskaita buvo paskelbta 33 minutes, ne 03:56 UTC
Vėjas 12 kt iš Pietų/Pietryčių
Temperatūra 29°C
Drėgmė 74%
Slėgis 1014 hPa
Matomumas: 16.1 km
Giedras dangus

METAR: KILE 250356Z AUTO 16012KT 10SM CLR 29/24 A2994 RMK AO2 SLP125 T02890239

Laikas: 23:29 (04:29 UTC)


TAF: trūkstamas

Orai ataskaitas ir orų prognozės (METAR, TAF).

turimą stotys yra geltonos ir raudonos taškus žemėlapyje.

Perkelti pele per norėdami pamatyti stoties vardą.

Tada spustelėkite, norėdami matyti oro stebėjimo ir prognozės.

Norėdami pakeisti žemėlapį: spustelėkite ant žalios mygtukų su juodo kryžiaus žemyn,; žalią mygtuką su brūkšneliu, jei norite nutolinti; arba žalių rodyklių gretimoms žemėlapius.


METAR-TAF: